sensor_id;sensor_type;location;lat;lon;timestamp;P1;durP1;ratioP1;P2;durP2;ratioP2
3463;SDS011;3551;41.578;24.706;2024-02-21T00:00:40;37.13;;;16.80;;
3463;SDS011;3551;41.578;24.706;2024-02-21T00:03:07;33.67;;;16.98;;
3463;SDS011;3551;41.578;24.706;2024-02-21T00:05:34;30.13;;;17.13;;
3463;SDS011;3551;41.578;24.706;2024-02-21T00:08:03;29.55;;;16.13;;
3463;SDS011;3551;41.578;24.706;2024-02-21T00:10:30;36.83;;;17.70;;
3463;SDS011;3551;41.578;24.706;2024-02-21T00:12:57;29.83;;;13.77;;
3463;SDS011;3551;41.578;24.706;2024-02-21T00:15:24;40.78;;;16.58;;
3463;SDS011;3551;41.578;24.706;2024-02-21T00:17:51;33.60;;;17.40;;
3463;SDS011;3551;41.578;24.706;2024-02-21T00:20:19;36.08;;;16.33;;
3463;SDS011;3551;41.578;24.706;2024-02-21T00:22:46;37.33;;;17.48;;
3463;SDS011;3551;41.578;24.706;2024-02-21T00:25:14;33.75;;;17.08;;
3463;SDS011;3551;41.578;24.706;2024-02-21T00:27:41;35.53;;;16.95;;
3463;SDS011;3551;41.578;24.706;2024-02-21T00:30:08;38.78;;;19.33;;
3463;SDS011;3551;41.578;24.706;2024-02-21T00:32:38;33.80;;;15.50;;
3463;SDS011;3551;41.578;24.706;2024-02-21T00:35:05;32.63;;;16.20;;
3463;SDS011;3551;41.578;24.706;2024-02-21T00:37:32;32.78;;;15.55;;
3463;SDS011;3551;41.578;24.706;2024-02-21T00:39:59;32.47;;;14.82;;
3463;SDS011;3551;41.578;24.706;2024-02-21T00:42:27;27.92;;;15.15;;
3463;SDS011;3551;41.578;24.706;2024-02-21T00:44:54;26.05;;;13.88;;
3463;SDS011;3551;41.578;24.706;2024-02-21T00:47:21;30.83;;;15.88;;
3463;SDS011;3551;41.578;24.706;2024-02-21T00:49:48;35.25;;;15.93;;
3463;SDS011;3551;41.578;24.706;2024-02-21T00:52:15;31.90;;;13.80;;
3463;SDS011;3551;41.578;24.706;2024-02-21T00:54:45;32.47;;;15.18;;
3463;SDS011;3551;41.578;24.706;2024-02-21T00:57:12;27.52;;;15.25;;
3463;SDS011;3551;41.578;24.706;2024-02-21T00:59:40;25.35;;;13.70;;
3463;SDS011;3551;41.578;24.706;2024-02-21T01:02:07;28.58;;;14.55;;
3463;SDS011;3551;41.578;24.706;2024-02-21T01:04:34;33.42;;;15.95;;
3463;SDS011;3551;41.578;24.706;2024-02-21T01:07:01;29.40;;;14.57;;
3463;SDS011;3551;41.578;24.706;2024-02-21T01:09:28;35.08;;;16.02;;
3463;SDS011;3551;41.578;24.706;2024-02-21T01:11:55;29.85;;;15.45;;
3463;SDS011;3551;41.578;24.706;2024-02-21T01:14:22;31.17;;;16.02;;
3463;SDS011;3551;41.578;24.706;2024-02-21T01:16:50;32.45;;;15.43;;
3463;SDS011;3551;41.578;24.706;2024-02-21T01:19:17;29.45;;;14.65;;
3463;SDS011;3551;41.578;24.706;2024-02-21T01:21:45;32.50;;;15.38;;
3463;SDS011;3551;41.578;24.706;2024-02-21T01:24:11;33.72;;;16.20;;
3463;SDS011;3551;41.578;24.706;2024-02-21T01:26:41;25.45;;;14.73;;
3463;SDS011;3551;41.578;24.706;2024-02-21T01:29:11;30.40;;;15.23;;
3463;SDS011;3551;41.578;24.706;2024-02-21T01:31:38;26.95;;;15.07;;
3463;SDS011;3551;41.578;24.706;2024-02-21T01:34:07;29.80;;;15.35;;
3463;SDS011;3551;41.578;24.706;2024-02-21T01:36:34;25.65;;;13.85;;
3463;SDS011;3551;41.578;24.706;2024-02-21T01:39:01;30.25;;;14.32;;
3463;SDS011;3551;41.578;24.706;2024-02-21T01:41:29;26.27;;;13.52;;
3463;SDS011;3551;41.578;24.706;2024-02-21T01:43:56;28.85;;;14.25;;
3463;SDS011;3551;41.578;24.706;2024-02-21T01:46:23;28.02;;;13.13;;
3463;SDS011;3551;41.578;24.706;2024-02-21T01:48:54;26.23;;;13.65;;
3463;SDS011;3551;41.578;24.706;2024-02-21T01:51:22;29.98;;;13.73;;
3463;SDS011;3551;41.578;24.706;2024-02-21T01:53:49;38.80;;;14.52;;
3463;SDS011;3551;41.578;24.706;2024-02-21T01:56:18;27.75;;;14.95;;
3463;SDS011;3551;41.578;24.706;2024-02-21T01:58:46;27.95;;;14.40;;
3463;SDS011;3551;41.578;24.706;2024-02-21T02:01:15;26.48;;;13.65;;
3463;SDS011;3551;41.578;24.706;2024-02-21T02:03:44;30.30;;;14.45;;
3463;SDS011;3551;41.578;24.706;2024-02-21T02:06:11;26.75;;;14.30;;
3463;SDS011;3551;41.578;24.706;2024-02-21T02:08:42;32.30;;;15.70;;
3463;SDS011;3551;41.578;24.706;2024-02-21T02:11:12;32.65;;;15.50;;
3463;SDS011;3551;41.578;24.706;2024-02-21T02:13:40;27.30;;;14.45;;
3463;SDS011;3551;41.578;24.706;2024-02-21T02:16:07;30.98;;;14.38;;
3463;SDS011;3551;41.578;24.706;2024-02-21T02:18:34;31.08;;;15.10;;
3463;SDS011;3551;41.578;24.706;2024-02-21T02:21:01;28.08;;;13.55;;
3463;SDS011;3551;41.578;24.706;2024-02-21T02:23:33;27.65;;;14.85;;
3463;SDS011;3551;41.578;24.706;2024-02-21T02:26:02;33.13;;;15.55;;
3463;SDS011;3551;41.578;24.706;2024-02-21T02:28:32;25.63;;;13.85;;
3463;SDS011;3551;41.578;24.706;2024-02-21T02:30:59;29.95;;;14.65;;
3463;SDS011;3551;41.578;24.706;2024-02-21T02:33:26;35.60;;;15.73;;
3463;SDS011;3551;41.578;24.706;2024-02-21T02:35:53;33.40;;;14.98;;
3463;SDS011;3551;41.578;24.706;2024-02-21T02:38:20;31.33;;;14.55;;
3463;SDS011;3551;41.578;24.706;2024-02-21T02:40:48;30.52;;;14.98;;
3463;SDS011;3551;41.578;24.706;2024-02-21T02:43:15;29.52;;;15.23;;
3463;SDS011;3551;41.578;24.706;2024-02-21T02:45:42;27.67;;;15.45;;
3463;SDS011;3551;41.578;24.706;2024-02-21T02:48:09;31.48;;;16.05;;
3463;SDS011;3551;41.578;24.706;2024-02-21T02:50:36;32.33;;;15.13;;
3463;SDS011;3551;41.578;24.706;2024-02-21T02:53:03;33.42;;;14.70;;
3463;SDS011;3551;41.578;24.706;2024-02-21T02:55:32;30.92;;;14.77;;
3463;SDS011;3551;41.578;24.706;2024-02-21T02:58:02;35.53;;;16.58;;
3463;SDS011;3551;41.578;24.706;2024-02-21T03:00:31;36.15;;;16.27;;
3463;SDS011;3551;41.578;24.706;2024-02-21T03:03:02;32.53;;;16.52;;
3463;SDS011;3551;41.578;24.706;2024-02-21T03:05:31;31.70;;;15.70;;
3463;SDS011;3551;41.578;24.706;2024-02-21T03:07:58;37.30;;;14.55;;
3463;SDS011;3551;41.578;24.706;2024-02-21T03:10:25;33.67;;;15.50;;
3463;SDS011;3551;41.578;24.706;2024-02-21T03:12:52;31.73;;;15.52;;
3463;SDS011;3551;41.578;24.706;2024-02-21T03:15:21;24.83;;;13.20;;
3463;SDS011;3551;41.578;24.706;2024-02-21T03:17:50;25.80;;;13.60;;
3463;SDS011;3551;41.578;24.706;2024-02-21T03:20:17;28.10;;;14.18;;
3463;SDS011;3551;41.578;24.706;2024-02-21T03:22:46;27.50;;;14.20;;
3463;SDS011;3551;41.578;24.706;2024-02-21T03:25:13;28.30;;;14.35;;
3463;SDS011;3551;41.578;24.706;2024-02-21T03:27:40;29.15;;;16.33;;
3463;SDS011;3551;41.578;24.706;2024-02-21T03:30:07;30.17;;;15.35;;
3463;SDS011;3551;41.578;24.706;2024-02-21T03:32:36;28.80;;;15.00;;
3463;SDS011;3551;41.578;24.706;2024-02-21T03:35:05;35.05;;;16.02;;
3463;SDS011;3551;41.578;24.706;2024-02-21T03:37:32;26.02;;;14.73;;
3463;SDS011;3551;41.578;24.706;2024-02-21T03:39:59;28.45;;;14.38;;
3463;SDS011;3551;41.578;24.706;2024-02-21T03:42:28;28.27;;;13.00;;
3463;SDS011;3551;41.578;24.706;2024-02-21T03:44:56;24.17;;;12.88;;
3463;SDS011;3551;41.578;24.706;2024-02-21T03:47:26;33.10;;;14.45;;
3463;SDS011;3551;41.578;24.706;2024-02-21T03:49:55;29.75;;;15.60;;
3463;SDS011;3551;41.578;24.706;2024-02-21T03:52:25;39.20;;;14.52;;
3463;SDS011;3551;41.578;24.706;2024-02-21T03:54:52;29.10;;;14.65;;
3463;SDS011;3551;41.578;24.706;2024-02-21T03:57:20;27.83;;;15.23;;
3463;SDS011;3551;41.578;24.706;2024-02-21T03:59:49;32.55;;;13.85;;
3463;SDS011;3551;41.578;24.706;2024-02-21T04:02:17;24.27;;;13.60;;
3463;SDS011;3551;41.578;24.706;2024-02-21T04:04:44;27.42;;;12.55;;
3463;SDS011;3551;41.578;24.706;2024-02-21T04:07:14;23.33;;;13.02;;
3463;SDS011;3551;41.578;24.706;2024-02-21T04:09:42;23.65;;;12.48;;
3463;SDS011;3551;41.578;24.706;2024-02-21T04:12:09;21.88;;;11.20;;
3463;SDS011;3551;41.578;24.706;2024-02-21T04:14:36;25.85;;;13.77;;
3463;SDS011;3551;41.578;24.706;2024-02-21T04:17:04;25.42;;;13.18;;
3463;SDS011;3551;41.578;24.706;2024-02-21T04:19:32;24.23;;;12.68;;
3463;SDS011;3551;41.578;24.706;2024-02-21T04:22:00;26.90;;;13.55;;
3463;SDS011;3551;41.578;24.706;2024-02-21T04:24:29;28.17;;;13.20;;
3463;SDS011;3551;41.578;24.706;2024-02-21T04:26:56;28.13;;;13.57;;
3463;SDS011;3551;41.578;24.706;2024-02-21T04:29:25;26.27;;;12.18;;
3463;SDS011;3551;41.578;24.706;2024-02-21T04:31:53;29.30;;;13.95;;
3463;SDS011;3551;41.578;24.706;2024-02-21T04:34:20;33.25;;;14.60;;
3463;SDS011;3551;41.578;24.706;2024-02-21T04:36:46;30.15;;;16.48;;
3463;SDS011;3551;41.578;24.706;2024-02-21T04:39:14;29.23;;;15.35;;
3463;SDS011;3551;41.578;24.706;2024-02-21T04:41:45;36.40;;;18.02;;
3463;SDS011;3551;41.578;24.706;2024-02-21T04:44:11;34.05;;;16.13;;
3463;SDS011;3551;41.578;24.706;2024-02-21T04:46:41;32.53;;;17.83;;
3463;SDS011;3551;41.578;24.706;2024-02-21T04:49:08;34.75;;;18.08;;
3463;SDS011;3551;41.578;24.706;2024-02-21T04:51:36;39.65;;;20.55;;
3463;SDS011;3551;41.578;24.706;2024-02-21T04:54:03;39.55;;;19.45;;
3463;SDS011;3551;41.578;24.706;2024-02-21T04:56:31;36.28;;;18.58;;
3463;SDS011;3551;41.578;24.706;2024-02-21T04:59:01;36.70;;;18.83;;
3463;SDS011;3551;41.578;24.706;2024-02-21T05:01:28;39.42;;;18.60;;
3463;SDS011;3551;41.578;24.706;2024-02-21T05:03:55;42.58;;;21.98;;
3463;SDS011;3551;41.578;24.706;2024-02-21T05:06:22;40.22;;;22.65;;
3463;SDS011;3551;41.578;24.706;2024-02-21T05:08:51;47.83;;;23.67;;
3463;SDS011;3551;41.578;24.706;2024-02-21T05:11:18;43.47;;;22.80;;
3463;SDS011;3551;41.578;24.706;2024-02-21T05:13:45;41.03;;;22.20;;
3463;SDS011;3551;41.578;24.706;2024-02-21T05:16:14;35.33;;;18.02;;
3463;SDS011;3551;41.578;24.706;2024-02-21T05:18:42;36.30;;;17.90;;
3463;SDS011;3551;41.578;24.706;2024-02-21T05:21:09;42.15;;;19.17;;
3463;SDS011;3551;41.578;24.706;2024-02-21T05:23:36;38.95;;;18.80;;
3463;SDS011;3551;41.578;24.706;2024-02-21T05:26:10;40.50;;;19.70;;
3463;SDS011;3551;41.578;24.706;2024-02-21T05:28:39;38.13;;;18.33;;
3463;SDS011;3551;41.578;24.706;2024-02-21T05:31:06;37.05;;;19.23;;
3463;SDS011;3551;41.578;24.706;2024-02-21T05:33:35;33.35;;;18.02;;
3463;SDS011;3551;41.578;24.706;2024-02-21T05:36:02;45.05;;;20.60;;
3463;SDS011;3551;41.578;24.706;2024-02-21T05:38:31;51.85;;;20.45;;
3463;SDS011;3551;41.578;24.706;2024-02-21T05:40:58;43.83;;;21.40;;
3463;SDS011;3551;41.578;24.706;2024-02-21T05:43:25;40.85;;;19.02;;
3463;SDS011;3551;41.578;24.706;2024-02-21T05:45:53;34.97;;;14.98;;
3463;SDS011;3551;41.578;24.706;2024-02-21T05:48:21;67.47;;;34.70;;
3463;SDS011;3551;41.578;24.706;2024-02-21T05:50:50;141.68;;;74.68;;
3463;SDS011;3551;41.578;24.706;2024-02-21T05:53:18;46.88;;;23.02;;
3463;SDS011;3551;41.578;24.706;2024-02-21T05:55:45;49.90;;;25.73;;
3463;SDS011;3551;41.578;24.706;2024-02-21T05:58:12;49.08;;;27.60;;
3463;SDS011;3551;41.578;24.706;2024-02-21T06:00:39;60.45;;;30.35;;
3463;SDS011;3551;41.578;24.706;2024-02-21T06:03:07;64.38;;;33.70;;
3463;SDS011;3551;41.578;24.706;2024-02-21T06:05:36;73.50;;;34.22;;
3463;SDS011;3551;41.578;24.706;2024-02-21T06:08:06;57.13;;;30.70;;
3463;SDS011;3551;41.578;24.706;2024-02-21T06:10:35;45.80;;;25.70;;
3463;SDS011;3551;41.578;24.706;2024-02-21T06:13:02;43.42;;;22.85;;
3463;SDS011;3551;41.578;24.706;2024-02-21T06:15:30;46.75;;;25.50;;
3463;SDS011;3551;41.578;24.706;2024-02-21T06:18:00;67.35;;;30.92;;
3463;SDS011;3551;41.578;24.706;2024-02-21T06:20:30;48.63;;;27.77;;
3463;SDS011;3551;41.578;24.706;2024-02-21T06:22:57;49.17;;;27.17;;
3463;SDS011;3551;41.578;24.706;2024-02-21T06:25:28;64.20;;;32.35;;
3463;SDS011;3551;41.578;24.706;2024-02-21T06:27:59;67.07;;;31.25;;
3463;SDS011;3551;41.578;24.706;2024-02-21T06:30:28;65.68;;;35.78;;
3463;SDS011;3551;41.578;24.706;2024-02-21T06:32:56;53.08;;;29.30;;
3463;SDS011;3551;41.578;24.706;2024-02-21T06:35:24;52.67;;;30.90;;
3463;SDS011;3551;41.578;24.706;2024-02-21T06:37:51;64.15;;;31.45;;
3463;SDS011;3551;41.578;24.706;2024-02-21T06:40:20;56.15;;;26.58;;
3463;SDS011;3551;41.578;24.706;2024-02-21T06:42:49;59.13;;;30.05;;
3463;SDS011;3551;41.578;24.706;2024-02-21T06:45:16;59.20;;;30.73;;
3463;SDS011;3551;41.578;24.706;2024-02-21T06:47:43;65.80;;;32.92;;
3463;SDS011;3551;41.578;24.706;2024-02-21T06:50:10;83.15;;;39.45;;
3463;SDS011;3551;41.578;24.706;2024-02-21T06:52:37;75.10;;;39.00;;
3463;SDS011;3551;41.578;24.706;2024-02-21T06:55:05;92.25;;;39.03;;
3463;SDS011;3551;41.578;24.706;2024-02-21T06:57:38;87.70;;;36.35;;
3463;SDS011;3551;41.578;24.706;2024-02-21T07:00:14;61.83;;;34.47;;
3463;SDS011;3551;41.578;24.706;2024-02-21T07:02:44;66.15;;;32.90;;
3463;SDS011;3551;41.578;24.706;2024-02-21T07:05:11;62.78;;;33.05;;
3463;SDS011;3551;41.578;24.706;2024-02-21T07:07:38;60.05;;;31.98;;
3463;SDS011;3551;41.578;24.706;2024-02-21T07:10:06;72.95;;;36.97;;
3463;SDS011;3551;41.578;24.706;2024-02-21T07:12:39;71.57;;;37.70;;
3463;SDS011;3551;41.578;24.706;2024-02-21T07:15:11;118.03;;;48.47;;
3463;SDS011;3551;41.578;24.706;2024-02-21T07:17:42;119.78;;;53.97;;
